sensor_id;sensor_type;location;lat;lon;timestamp;pressure;altitude;pressure_sealevel;temperature;humidity
65756;BME280;52489;47.502;18.940;2022-10-16T00:00:04;98604.25;;;13.60;67.50
65756;BME280;52489;47.502;18.940;2022-10-16T00:01:10;98600.41;;;13.66;67.08
65756;BME280;52489;47.502;18.940;2022-10-16T00:02:13;98597.91;;;13.61;67.08
65756;BME280;52489;47.502;18.940;2022-10-16T00:03:16;98587.50;;;13.56;67.07
65756;BME280;52489;47.502;18.940;2022-10-16T00:04:19;98592.41;;;13.49;67.64
65756;BME280;52489;47.502;18.940;2022-10-16T00:05:22;98596.50;;;13.55;67.95
65756;BME280;52489;47.502;18.940;2022-10-16T00:06:25;98588.44;;;13.60;67.80
65756;BME280;52489;47.502;18.940;2022-10-16T00:07:28;98588.44;;;13.60;67.30
65756;BME280;52489;47.502;18.940;2022-10-16T00:08:32;98585.22;;;13.63;67.21
65756;BME280;52489;47.502;18.940;2022-10-16T00:09:34;98589.22;;;13.60;67.55
65756;BME280;52489;47.502;18.940;2022-10-16T00:10:37;98585.16;;;13.54;67.58
65756;BME280;52489;47.502;18.940;2022-10-16T00:11:40;98594.31;;;13.57;67.73
65756;BME280;52489;47.502;18.940;2022-10-16T00:12:43;98582.47;;;13.46;67.32
65756;BME280;52489;47.502;18.940;2022-10-16T00:13:47;98589.31;;;13.47;67.43
65756;BME280;52489;47.502;18.940;2022-10-16T00:14:50;98589.41;;;13.41;67.97
65756;BME280;52489;47.502;18.940;2022-10-16T00:15:55;98581.53;;;13.41;68.32
65756;BME280;52489;47.502;18.940;2022-10-16T00:16:58;98580.44;;;13.42;68.16
65756;BME280;52489;47.502;18.940;2022-10-16T00:18:01;98583.06;;;13.42;67.87
65756;BME280;52489;47.502;18.940;2022-10-16T00:19:04;98586.56;;;13.52;67.03
65756;BME280;52489;47.502;18.940;2022-10-16T00:20:07;98578.84;;;13.55;66.70
65756;BME280;52489;47.502;18.940;2022-10-16T00:21:13;98585.41;;;13.44;67.15
65756;BME280;52489;47.502;18.940;2022-10-16T00:22:16;98589.06;;;13.34;67.88
65756;BME280;52489;47.502;18.940;2022-10-16T00:23:19;98599.41;;;13.31;67.87
65756;BME280;52489;47.502;18.940;2022-10-16T00:24:22;98598.44;;;13.27;68.05
65756;BME280;52489;47.502;18.940;2022-10-16T00:25:25;98601.38;;;13.25;68.18
65756;BME280;52489;47.502;18.940;2022-10-16T00:26:29;98598.53;;;13.21;68.22
65756;BME280;52489;47.502;18.940;2022-10-16T00:27:33;98596.38;;;13.24;67.95
65756;BME280;52489;47.502;18.940;2022-10-16T00:28:36;98599.34;;;13.45;67.56
65756;BME280;52489;47.502;18.940;2022-10-16T00:29:40;98602.56;;;13.41;67.45
65756;BME280;52489;47.502;18.940;2022-10-16T00:30:42;98610.97;;;13.43;67.66
65756;BME280;52489;47.502;18.940;2022-10-16T00:31:45;98608.00;;;13.45;67.33
65756;BME280;52489;47.502;18.940;2022-10-16T00:32:48;98610.53;;;13.50;66.79
65756;BME280;52489;47.502;18.940;2022-10-16T00:33:51;98611.38;;;13.37;67.34
65756;BME280;52489;47.502;18.940;2022-10-16T00:34:54;98616.41;;;13.47;66.97
65756;BME280;52489;47.502;18.940;2022-10-16T00:36:01;98607.78;;;13.55;66.55
65756;BME280;52489;47.502;18.940;2022-10-16T00:37:04;98612.22;;;13.46;66.91
65756;BME280;52489;47.502;18.940;2022-10-16T00:38:07;98611.72;;;13.44;67.21
65756;BME280;52489;47.502;18.940;2022-10-16T00:39:10;98605.81;;;13.38;67.48
65756;BME280;52489;47.502;18.940;2022-10-16T00:40:12;98613.00;;;13.47;67.45
65756;BME280;52489;47.502;18.940;2022-10-16T00:41:16;98616.28;;;13.52;67.13
65756;BME280;52489;47.502;18.940;2022-10-16T00:42:19;98610.34;;;13.47;67.51
65756;BME280;52489;47.502;18.940;2022-10-16T00:43:44;98610.34;;;13.47;67.56
65756;BME280;52489;47.502;18.940;2022-10-16T00:44:53;98611.66;;;13.35;68.38
65756;BME280;52489;47.502;18.940;2022-10-16T00:45:56;98618.12;;;13.15;69.13
65756;BME280;52489;47.502;18.940;2022-10-16T00:46:59;98616.78;;;13.04;69.80
65756;BME280;52489;47.502;18.940;2022-10-16T00:48:01;98609.53;;;13.24;68.49
65756;BME280;52489;47.502;18.940;2022-10-16T00:49:13;98606.41;;;13.21;68.21
65756;BME280;52489;47.502;18.940;2022-10-16T00:50:29;98608.88;;;13.18;68.15
65756;BME280;52489;47.502;18.940;2022-10-16T00:51:40;98611.41;;;13.23;67.95
65756;BME280;52489;47.502;18.940;2022-10-16T00:52:46;98610.12;;;13.20;67.75
65756;BME280;52489;47.502;18.940;2022-10-16T00:53:50;98619.63;;;13.08;68.87
65756;BME280;52489;47.502;18.940;2022-10-16T00:54:53;98618.44;;;13.14;68.82
65756;BME280;52489;47.502;18.940;2022-10-16T00:55:56;98623.44;;;13.02;69.56
65756;BME280;52489;47.502;18.940;2022-10-16T00:57:01;98628.13;;;12.91;70.18
65756;BME280;52489;47.502;18.940;2022-10-16T00:58:06;98621.59;;;12.88;70.18
65756;BME280;52489;47.502;18.940;2022-10-16T00:59:18;98628.56;;;12.70;71.03
65756;BME280;52489;47.502;18.940;2022-10-16T01:00:24;98631.75;;;12.81;70.88
65756;BME280;52489;47.502;18.940;2022-10-16T01:01:27;98621.75;;;12.69;71.48
65756;BME280;52489;47.502;18.940;2022-10-16T01:02:30;98630.81;;;12.63;71.52
65756;BME280;52489;47.502;18.940;2022-10-16T01:03:36;98626.28;;;12.78;70.98
65756;BME280;52489;47.502;18.940;2022-10-16T01:04:41;98628.63;;;12.79;70.88
65756;BME280;52489;47.502;18.940;2022-10-16T01:05:49;98634.50;;;12.48;72.19
65756;BME280;52489;47.502;18.940;2022-10-16T01:11:17;98640.12;;;12.42;72.27
65756;BME280;52489;47.502;18.940;2022-10-16T01:12:31;98633.81;;;12.43;72.23
65756;BME280;52489;47.502;18.940;2022-10-16T01:13:42;98635.09;;;12.45;72.11
65756;BME280;52489;47.502;18.940;2022-10-16T01:15:03;98631.47;;;12.41;72.22
65756;BME280;52489;47.502;18.940;2022-10-16T01:16:18;98641.47;;;12.12;73.47
65756;BME280;52489;47.502;18.940;2022-10-16T01:17:43;98636.81;;;12.09;73.53
65756;BME280;52489;47.502;18.940;2022-10-16T01:19:19;98640.91;;;12.28;72.84
65756;BME280;52489;47.502;18.940;2022-10-16T01:20:32;98638.09;;;12.25;72.92
65756;BME280;52489;47.502;18.940;2022-10-16T01:21:41;98643.03;;;12.26;72.96
65756;BME280;52489;47.502;18.940;2022-10-16T01:22:56;98646.16;;;12.28;72.66
65756;BME280;52489;47.502;18.940;2022-10-16T01:27:59;98647.78;;;11.97;73.06
65756;BME280;52489;47.502;18.940;2022-10-16T01:31:17;98649.12;;;11.94;73.22
65756;BME280;52489;47.502;18.940;2022-10-16T01:33:45;98640.78;;;12.06;72.82
65756;BME280;52489;47.502;18.940;2022-10-16T01:34:54;98650.13;;;11.79;73.38
65756;BME280;52489;47.502;18.940;2022-10-16T01:36:09;98643.47;;;11.87;73.15
65756;BME280;52489;47.502;18.940;2022-10-16T01:37:18;98647.56;;;11.93;72.92
65756;BME280;52489;47.502;18.940;2022-10-16T01:38:31;98644.28;;;11.69;73.00
65756;BME280;52489;47.502;18.940;2022-10-16T01:39:38;98643.28;;;11.65;72.86
65756;BME280;52489;47.502;18.940;2022-10-16T01:40:46;98638.56;;;11.48;74.43
65756;BME280;52489;47.502;18.940;2022-10-16T01:42:00;98640.19;;;11.44;74.56
65756;BME280;52489;47.502;18.940;2022-10-16T01:43:17;98653.59;;;11.42;74.24
65756;BME280;52489;47.502;18.940;2022-10-16T01:44:25;98640.69;;;11.46;73.57
65756;BME280;52489;47.502;18.940;2022-10-16T01:45:32;98646.13;;;11.49;73.24
65756;BME280;52489;47.502;18.940;2022-10-16T01:46:38;98645.94;;;11.46;73.25
65756;BME280;52489;47.502;18.940;2022-10-16T01:47:42;98642.94;;;11.52;73.65
65756;BME280;52489;47.502;18.940;2022-10-16T01:48:48;98646.25;;;11.58;73.41
65756;BME280;52489;47.502;18.940;2022-10-16T01:49:52;98651.66;;;11.67;73.25
65756;BME280;52489;47.502;18.940;2022-10-16T01:51:15;98637.56;;;11.63;73.50
65756;BME280;52489;47.502;18.940;2022-10-16T01:52:23;98650.88;;;11.66;73.00
65756;BME280;52489;47.502;18.940;2022-10-16T01:53:29;98654.13;;;11.58;73.73
65756;BME280;52489;47.502;18.940;2022-10-16T01:54:36;98660.66;;;11.42;73.34
65756;BME280;52489;47.502;18.940;2022-10-16T01:55:43;98652.03;;;11.41;73.77
65756;BME280;52489;47.502;18.940;2022-10-16T01:56:49;98656.34;;;11.51;74.09
65756;BME280;52489;47.502;18.940;2022-10-16T01:57:57;98658.59;;;11.57;73.67
65756;BME280;52489;47.502;18.940;2022-10-16T01:59:06;98665.47;;;11.53;73.73
65756;BME280;52489;47.502;18.940;2022-10-16T02:00:13;98658.53;;;11.44;74.36
65756;BME280;52489;47.502;18.940;2022-10-16T02:01:19;98661.94;;;11.63;72.51
65756;BME280;52489;47.502;18.940;2022-10-16T02:02:27;98664.91;;;11.56;72.96
65756;BME280;52489;47.502;18.940;2022-10-16T02:03:32;98663.22;;;11.47;73.29
65756;BME280;52489;47.502;18.940;2022-10-16T02:04:47;98659.13;;;11.41;73.50
65756;BME280;52489;47.502;18.940;2022-10-16T02:05:54;98664.00;;;11.28;73.47
65756;BME280;52489;47.502;18.940;2022-10-16T02:06:58;98665.00;;;11.51;73.57
65756;BME280;52489;47.502;18.940;2022-10-16T02:08:02;98664.56;;;11.44;73.22
65756;BME280;52489;47.502;18.940;2022-10-16T02:09:07;98664.88;;;11.43;73.08
65756;BME280;52489;47.502;18.940;2022-10-16T02:10:10;98663.09;;;11.38;73.06
65756;BME280;52489;47.502;18.940;2022-10-16T02:11:13;98664.66;;;11.39;73.27
65756;BME280;52489;47.502;18.940;2022-10-16T02:12:24;98663.41;;;11.50;72.96
65756;BME280;52489;47.502;18.940;2022-10-16T02:13:39;98660.59;;;11.47;73.06
65756;BME280;52489;47.502;18.940;2022-10-16T02:14:44;98665.47;;;11.53;72.96
65756;BME280;52489;47.502;18.940;2022-10-16T02:15:47;98660.31;;;11.48;73.01
65756;BME280;52489;47.502;18.940;2022-10-16T02:16:50;98665.69;;;11.38;73.19
65756;BME280;52489;47.502;18.940;2022-10-16T02:17:53;98672.03;;;11.18;74.68
65756;BME280;52489;47.502;18.940;2022-10-16T02:18:56;98670.47;;;11.36;74.21
65756;BME280;52489;47.502;18.940;2022-10-16T02:19:59;98669.88;;;11.20;74.74
65756;BME280;52489;47.502;18.940;2022-10-16T02:21:17;98671.78;;;11.14;75.07
65756;BME280;52489;47.502;18.940;2022-10-16T02:22:30;98664.84;;;10.86;76.30
65756;BME280;52489;47.502;18.940;2022-10-16T02:23:55;98661.53;;;11.18;74.89
65756;BME280;52489;47.502;18.940;2022-10-16T02:25:19;98663.34;;;11.18;74.39
65756;BME280;52489;47.502;18.940;2022-10-16T02:26:33;98666.47;;;11.01;75.22
65756;BME280;52489;47.502;18.940;2022-10-16T02:27:55;98671.16;;;11.04;75.31
65756;BME280;52489;47.502;18.940;2022-10-16T02:29:04;98663.56;;;11.02;75.07
65756;BME280;52489;47.502;18.940;2022-10-16T02:31:27;98671.47;;;11.21;74.30
65756;BME280;52489;47.502;18.940;2022-10-16T02:32:34;98671.06;;;11.09;74.80
65756;BME280;52489;47.502;18.940;2022-10-16T02:33:40;98675.28;;;11.10;74.66
65756;BME280;52489;47.502;18.940;2022-10-16T02:34:45;98667.37;;;10.91;75.63
65756;BME280;52489;47.502;18.940;2022-10-16T02:35:50;98672.97;;;10.84;76.20
65756;BME280;52489;47.502;18.940;2022-10-16T02:36:54;98672.59;;;10.48;77.86
65756;BME280;52489;47.502;18.940;2022-10-16T02:37:58;98677.59;;;10.44;77.94
65756;BME280;52489;47.502;18.940;2022-10-16T02:39:02;98684.00;;;10.33;78.41
65756;BME280;52489;47.502;18.940;2022-10-16T02:40:07;98680.28;;;10.39;77.55
65756;BME280;52489;47.502;18.940;2022-10-16T02:41:10;98680.09;;;10.55;76.82
65756;BME280;52489;47.502;18.940;2022-10-16T02:42:14;98684.34;;;10.51;77.38
65756;BME280;52489;47.502;18.940;2022-10-16T02:43:18;98677.16;;;10.61;76.91
65756;BME280;52489;47.502;18.940;2022-10-16T02:44:21;98681.41;;;10.57;77.06
65756;BME280;52489;47.502;18.940;2022-10-16T02:45:24;98685.25;;;10.65;76.55
65756;BME280;52489;47.502;18.940;2022-10-16T02:46:27;98680.88;;;10.79;76.17
65756;BME280;52489;47.502;18.940;2022-10-16T02:47:30;98681.69;;;10.80;75.86
65756;BME280;52489;47.502;18.940;2022-10-16T02:48:34;98680.56;;;10.62;76.24
65756;BME280;52489;47.502;18.940;2022-10-16T02:49:37;98682.56;;;10.70;75.02
65756;BME280;52489;47.502;18.940;2022-10-16T02:50:40;98685.84;;;10.81;74.48
65756;BME280;52489;47.502;18.940;2022-10-16T02:51:43;98689.13;;;10.67;75.81
65756;BME280;52489;47.502;18.940;2022-10-16T02:52:46;98690.37;;;10.51;76.72
65756;BME280;52489;47.502;18.940;2022-10-16T02:53:48;98692.47;;;10.49;76.89
65756;BME280;52489;47.502;18.940;2022-10-16T02:54:51;98685.34;;;10.55;76.41
65756;BME280;52489;47.502;18.940;2022-10-16T02:55:54;98687.19;;;10.78;75.59
65756;BME280;52489;47.502;18.940;2022-10-16T02:56:57;98692.47;;;10.73;75.79
65756;BME280;52489;47.502;18.940;2022-10-16T02:58:01;98694.62;;;10.71;75.61
65756;BME280;52489;47.502;18.940;2022-10-16T02:59:03;98687.38;;;10.63;75.80
65756;BME280;52489;47.502;18.940;2022-10-16T03:00:09;98693.34;;;10.68;75.36
65756;BME280;52489;47.502;18.940;2022-10-16T03:01:12;98684.78;;;10.82;74.50
65756;BME280;52489;47.502;18.940;2022-10-16T03:02:16;98688.84;;;10.93;73.94
65756;BME280;52489;47.502;18.940;2022-10-16T03:03:19;98685.16;;;10.94;73.34
65756;BME280;52489;47.502;18.940;2022-10-16T03:04:22;98687.66;;;11.04;73.14
65756;BME280;52489;47.502;18.940;2022-10-16T03:05:25;98682.69;;;11.03;72.95
65756;BME280;52489;47.502;18.940;2022-10-16T03:06:32;98680.94;;;10.98;73.06
65756;BME280;52489;47.502;18.940;2022-10-16T03:07:35;98683.59;;;10.93;73.66
65756;BME280;52489;47.502;18.940;2022-10-16T03:08:38;98690.97;;;10.91;73.62
65756;BME280;52489;47.502;18.940;2022-10-16T03:09:41;98696.16;;;10.96;73.24
65756;BME280;52489;47.502;18.940;2022-10-16T03:10:44;98695.25;;;11.06;72.58
65756;BME280;52489;47.502;18.940;2022-10-16T03:11:47;98694.47;;;11.05;72.48
65756;BME280;52489;47.502;18.940;2022-10-16T03:12:50;98695.81;;;11.03;72.88
65756;BME280;52489;47.502;18.940;2022-10-16T03:13:53;98697.81;;;11.11;72.89
65756;BME280;52489;47.502;18.940;2022-10-16T03:14:56;98694.97;;;11.07;73.45
65756;BME280;52489;47.502;18.940;2022-10-16T03:15:59;98699.69;;;11.05;73.26
65756;BME280;52489;47.502;18.940;2022-10-16T03:17:02;98696.16;;;10.96;73.70
65756;BME280;52489;47.502;18.940;2022-10-16T03:18:06;98697.13;;;11.00;72.89
65756;BME280;52489;47.502;18.940;2022-10-16T03:19:09;98697.37;;;11.04;72.84
65756;BME280;52489;47.502;18.940;2022-10-16T03:20:12;98700.63;;;10.96;72.78
65756;BME280;52489;47.502;18.940;2022-10-16T03:21:15;98692.06;;;11.09;72.80
65756;BME280;52489;47.502;18.940;2022-10-16T03:22:19;98701.50;;;11.10;72.45
65756;BME280;52489;47.502;18.940;2022-10-16T03:23:22;98710.25;;;11.00;72.75
65756;BME280;52489;47.502;18.940;2022-10-16T03:24:25;98708.47;;;10.96;72.82
65756;BME280;52489;47.502;18.940;2022-10-16T03:25:27;98706.94;;;10.95;72.76
65756;BME280;52489;47.502;18.940;2022-10-16T03:26:30;98710.53;;;10.99;72.56
65756;BME280;52489;47.502;18.940;2022-10-16T03:27:33;98709.47;;;11.00;72.54
65756;BME280;52489;47.502;18.940;2022-10-16T03:28:36;98703.97;;;11.01;72.78
65756;BME280;52489;47.502;18.940;2022-10-16T03:29:39;98711.47;;;11.08;72.34
65756;BME280;52489;47.502;18.940;2022-10-16T03:30:43;98709.78;;;11.17;71.99
65756;BME280;52489;47.502;18.940;2022-10-16T03:31:46;98702.84;;;11.07;72.67
65756;BME280;52489;47.502;18.940;2022-10-16T03:32:51;98712.75;;;11.10;72.67
65756;BME280;52489;47.502;18.940;2022-10-16T03:33:57;98709.75;;;10.98;72.69
65756;BME280;52489;47.502;18.940;2022-10-16T03:34:59;98716.28;;;11.01;72.94
65756;BME280;52489;47.502;18.940;2022-10-16T03:36:03;98711.81;;;11.01;72.88
65756;BME280;52489;47.502;18.940;2022-10-16T03:37:05;98714.09;;;11.08;72.29
65756;BME280;52489;47.502;18.940;2022-10-16T03:38:08;98718.28;;;11.09;71.99
65756;BME280;52489;47.502;18.940;2022-10-16T03:39:11;98718.50;;;11.12;72.12
65756;BME280;52489;47.502;18.940;2022-10-16T03:40:15;98719.56;;;11.11;72.43
65756;BME280;52489;47.502;18.940;2022-10-16T03:41:18;98718.06;;;11.05;72.24
65756;BME280;52489;47.502;18.940;2022-10-16T03:42:20;98717.28;;;11.05;72.86
65756;BME280;52489;47.502;18.940;2022-10-16T03:43:23;98715.13;;;10.88;73.34
65756;BME280;52489;47.502;18.940;2022-10-16T03:44:26;98718.28;;;10.85;73.61
65756;BME280;52489;47.502;18.940;2022-10-16T03:45:29;98710.34;;;10.71;74.42
65756;BME280;52489;47.502;18.940;2022-10-16T03:46:32;98719.06;;;10.61;74.93
65756;BME280;52489;47.502;18.940;2022-10-16T03:47:35;98717.00;;;10.58;75.13
65756;BME280;52489;47.502;18.940;2022-10-16T03:48:38;98712.09;;;10.76;73.70
65756;BME280;52489;47.502;18.940;2022-10-16T03:49:42;98714.91;;;10.84;73.11
65756;BME280;52489;47.502;18.940;2022-10-16T03:50:46;98717.25;;;10.86;73.02
65756;BME280;52489;47.502;18.940;2022-10-16T03:51:50;98725.19;;;11.00;72.79
65756;BME280;52489;47.502;18.940;2022-10-16T03:52:53;98716.69;;;10.89;72.82
65756;BME280;52489;47.502;18.940;2022-10-16T03:53:56;98716.69;;;10.89;72.72
65756;BME280;52489;47.502;18.940;2022-10-16T03:54:59;98711.94;;;10.67;73.70
65756;BME280;52489;47.502;18.940;2022-10-16T03:56:02;98716.22;;;10.82;73.09
65756;BME280;52489;47.502;18.940;2022-10-16T03:57:05;98711.50;;;10.84;72.56
65756;BME280;52489;47.502;18.940;2022-10-16T03:58:08;98714.69;;;10.81;73.01
65756;BME280;52489;47.502;18.940;2022-10-16T03:59:11;98712.87;;;10.76;72.91
65756;BME280;52489;47.502;18.940;2022-10-16T04:00:14;98712.63;;;10.78;72.72
65756;BME280;52489;47.502;18.940;2022-10-16T04:01:16;98723.31;;;10.81;72.95
65756;BME280;52489;47.502;18.940;2022-10-16T04:02:19;98722.19;;;10.63;73.45
65756;BME280;52489;47.502;18.940;2022-10-16T04:03:22;98727.19;;;10.65;73.81
65756;BME280;52489;47.502;18.940;2022-10-16T04:04:26;98722.97;;;10.64;73.78
65756;BME280;52489;47.502;18.940;2022-10-16T04:05:29;98718.81;;;10.63;73.48
65756;BME280;52489;47.502;18.940;2022-10-16T04:06:32;98722.53;;;10.81;72.96
65756;BME280;52489;47.502;18.940;2022-10-16T04:07:35;98725.59;;;10.88;72.85
65756;BME280;52489;47.502;18.940;2022-10-16T04:08:43;98726.44;;;10.83;72.55
65756;BME280;52489;47.502;18.940;2022-10-16T04:09:46;98728.06;;;10.79;73.11
65756;BME280;52489;47.502;18.940;2022-10-16T04:10:49;98730.66;;;10.79;72.75
65756;BME280;52489;47.502;18.940;2022-10-16T04:11:52;98721.37;;;10.92;72.33
65756;BME280;52489;47.502;18.940;2022-10-16T04:12:54;98728.91;;;10.99;71.95
65756;BME280;52489;47.502;18.940;2022-10-16T04:13:58;98730.69;;;11.03;71.70
65756;BME280;52489;47.502;18.940;2022-10-16T04:15:01;98729.63;;;11.04;71.77
65756;BME280;52489;47.502;18.940;2022-10-16T04:16:04;98730.22;;;10.96;71.95
65756;BME280;52489;47.502;18.940;2022-10-16T04:17:07;98729.78;;;10.89;72.70
65756;BME280;52489;47.502;18.940;2022-10-16T04:18:10;98734.53;;;10.87;72.75
65756;BME280;52489;47.502;18.940;2022-10-16T04:19:13;98735.03;;;10.89;72.10
65756;BME280;52489;47.502;18.940;2022-10-16T04:20:16;98733.16;;;10.95;71.96
65756;BME280;52489;47.502;18.940;2022-10-16T04:21:19;98729.78;;;10.89;72.26
65756;BME280;52489;47.502;18.940;2022-10-16T04:22:21;98730.22;;;10.96;71.92
65756;BME280;52489;47.502;18.940;2022-10-16T04:23:24;98734.75;;;10.90;72.03
65756;BME280;52489;47.502;18.940;2022-10-16T04:24:27;98735.75;;;10.95;71.71
65756;BME280;52489;47.502;18.940;2022-10-16T04:25:33;98733.31;;;11.03;71.50
65756;BME280;52489;47.502;18.940;2022-10-16T04:26:36;98742.22;;;11.02;71.40
65756;BME280;52489;47.502;18.940;2022-10-16T04:27:40;98740.31;;;11.08;70.91
65756;BME280;52489;47.502;18.940;2022-10-16T04:28:47;98740.72;;;10.96;71.42
65756;BME280;52489;47.502;18.940;2022-10-16T04:29:50;98733.34;;;10.98;71.49
65756;BME280;52489;47.502;18.940;2022-10-16T04:30:53;98740.22;;;10.94;71.48
65756;BME280;52489;47.502;18.940;2022-10-16T04:31:56;98736.75;;;10.99;71.39
65756;BME280;52489;47.502;18.940;2022-10-16T04:32:59;98738.03;;;11.01;71.20
65756;BME280;52489;47.502;18.940;2022-10-16T04:34:02;98737.59;;;10.94;71.46
65756;BME280;52489;47.502;18.940;2022-10-16T04:35:05;98737.50;;;10.80;72.20
65756;BME280;52489;47.502;18.940;2022-10-16T04:36:09;98736.97;;;10.78;72.37
65756;BME280;52489;47.502;18.940;2022-10-16T04:37:12;98737.94;;;10.87;72.15
65756;BME280;52489;47.502;18.940;2022-10-16T04:38:15;98736.88;;;10.88;72.06
65756;BME280;52489;47.502;18.940;2022-10-16T04:39:18;98733.06;;;10.76;72.75
65756;BME280;52489;47.502;18.940;2022-10-16T04:40:21;98732.34;;;10.70;72.99
65756;BME280;52489;47.502;18.940;2022-10-16T04:41:23;98736.81;;;10.69;73.04
65756;BME280;52489;47.502;18.940;2022-10-16T04:42:26;98736.59;;;10.66;73.56
65756;BME280;52489;47.502;18.940;2022-10-16T04:43:29;98734.97;;;10.70;73.72
65756;BME280;52489;47.502;18.940;2022-10-16T04:44:32;98741.16;;;10.79;72.84
65756;BME280;52489;47.502;18.940;2022-10-16T04:45:35;98732.72;;;10.58;74.40
65756;BME280;52489;47.502;18.940;2022-10-16T04:46:38;98737.34;;;10.42;75.26
65756;BME280;52489;47.502;18.940;2022-10-16T04:47:41;98738.59;;;10.50;74.74
65756;BME280;52489;47.502;18.940;2022-10-16T04:48:44;98744.81;;;10.54;74.22
65756;BME280;52489;47.502;18.940;2022-10-16T04:49:46;98742.66;;;10.61;73.90
65756;BME280;52489;47.502;18.940;2022-10-16T04:50:49;98747.84;;;10.37;75.27
65756;BME280;52489;47.502;18.940;2022-10-16T04:51:56;98746.47;;;10.11;76.67
65756;BME280;52489;47.502;18.940;2022-10-16T04:52:59;98749.16;;;10.40;75.62
65756;BME280;52489;47.502;18.940;2022-10-16T04:54:02;98753.09;;;10.37;75.60
65756;BME280;52489;47.502;18.940;2022-10-16T04:55:05;98749.44;;;10.38;75.49
65756;BME280;52489;47.502;18.940;2022-10-16T04:56:11;98743.94;;;10.35;75.72
65756;BME280;52489;47.502;18.940;2022-10-16T04:57:14;98743.03;;;10.50;75.01
65756;BME280;52489;47.502;18.940;2022-10-16T04:58:17;98743.75;;;10.55;74.75
65756;BME280;52489;47.502;18.940;2022-10-16T04:59:20;98747.25;;;10.45;74.90
65756;BME280;52489;47.502;18.940;2022-10-16T05:00:23;98744.44;;;10.37;75.16
65756;BME280;52489;47.502;18.940;2022-10-16T05:01:26;98738.97;;;10.38;74.88
65756;BME280;52489;47.502;18.940;2022-10-16T05:02:33;98742.63;;;10.37;74.59
65756;BME280;52489;47.502;18.940;2022-10-16T05:03:36;98743.72;;;10.26;75.18
65756;BME280;52489;47.502;18.940;2022-10-16T05:04:39;98736.50;;;10.13;75.79
65756;BME280;52489;47.502;18.940;2022-10-16T05:05:45;98737.47;;;10.27;75.13
65756;BME280;52489;47.502;18.940;2022-10-16T05:06:48;98738.41;;;10.41;74.54
65756;BME280;52489;47.502;18.940;2022-10-16T05:07:51;98740.00;;;10.37;74.44
65756;BME280;52489;47.502;18.940;2022-10-16T05:08:54;98739.97;;;10.42;74.15
65756;BME280;52489;47.502;18.940;2022-10-16T05:09:57;98735.53;;;10.38;74.07
65756;BME280;52489;47.502;18.940;2022-10-16T05:11:00;98740.84;;;10.33;74.20
65756;BME280;52489;47.502;18.940;2022-10-16T05:12:07;98736.94;;;10.25;74.46
65756;BME280;52489;47.502;18.940;2022-10-16T05:13:10;98730.16;;;10.24;75.10
65756;BME280;52489;47.502;18.940;2022-10-16T05:14:13;98744.50;;;10.32;74.88
65756;BME280;52489;47.502;18.940;2022-10-16T05:15:16;98739.22;;;10.37;74.53
65756;BME280;52489;47.502;18.940;2022-10-16T05:16:19;98744.09;;;10.48;73.98
65756;BME280;52489;47.502;18.940;2022-10-16T05:17:22;98748.41;;;10.63;73.25
65756;BME280;52489;47.502;18.940;2022-10-16T05:18:25;98747.16;;;10.56;73.60
65756;BME280;52489;47.502;18.940;2022-10-16T05:19:28;98752.25;;;10.71;72.55
65756;BME280;52489;47.502;18.940;2022-10-16T05:20:31;98753.25;;;10.75;72.55
65756;BME280;52489;47.502;18.940;2022-10-16T05:21:34;98761.56;;;10.82;72.23
65756;BME280;52489;47.502;18.940;2022-10-16T05:22:37;98755.31;;;10.78;72.43
65756;BME280;52489;47.502;18.940;2022-10-16T05:23:40;98765.47;;;10.85;72.07
65756;BME280;52489;47.502;18.940;2022-10-16T05:24:43;98757.16;;;10.78;72.49
65756;BME280;52489;47.502;18.940;2022-10-16T05:25:56;98768.16;;;10.80;72.49
65756;BME280;52489;47.502;18.940;2022-10-16T05:27:01;98756.94;;;10.74;72.40
65756;BME280;52489;47.502;18.940;2022-10-16T05:28:04;98765.19;;;10.62;72.81
65756;BME280;52489;47.502;18.940;2022-10-16T05:29:07;98770.66;;;10.66;72.93
65756;BME280;52489;47.502;18.940;2022-10-16T05:30:10;98769.81;;;10.70;73.27
65756;BME280;52489;47.502;18.940;2022-10-16T05:31:21;98780.53;;;10.74;73.06
65756;BME280;52489;47.502;18.940;2022-10-16T05:32:24;98775.00;;;10.76;73.18
65756;BME280;52489;47.502;18.940;2022-10-16T05:33:27;98764.94;;;10.59;74.06
65756;BME280;52489;47.502;18.940;2022-10-16T05:34:30;98773.34;;;10.56;74.57
65756;BME280;52489;47.502;18.940;2022-10-16T05:35:33;98769.72;;;10.52;75.05
65756;BME280;52489;47.502;18.940;2022-10-16T05:36:36;98774.03;;;10.66;74.77
65756;BME280;52489;47.502;18.940;2022-10-16T05:37:39;98776.81;;;10.51;74.94
65756;BME280;52489;47.502;18.940;2022-10-16T05:38:42;98766.16;;;10.72;74.79
65756;BME280;52489;47.502;18.940;2022-10-16T05:39:49;98765.06;;;10.73;74.54
65756;BME280;52489;47.502;18.940;2022-10-16T05:40:52;98763.84;;;10.65;74.86
65756;BME280;52489;47.502;18.940;2022-10-16T05:41:55;98757.88;;;10.59;75.01
65756;BME280;52489;47.502;18.940;2022-10-16T05:42:58;98759.78;;;10.78;73.08
65756;BME280;52489;47.502;18.940;2022-10-16T05:44:04;98763.47;;;10.77;72.69
65756;BME280;52489;47.502;18.940;2022-10-16T05:45:09;98765.38;;;10.71;72.72
65756;BME280;52489;47.502;18.940;2022-10-16T05:46:15;98768.06;;;10.61;73.20
65756;BME280;52489;47.502;18.940;2022-10-16T05:47:18;98775.13;;;10.65;72.99
65756;BME280;52489;47.502;18.940;2022-10-16T05:48:26;98763.94;;;10.55;73.56
65756;BME280;52489;47.502;18.940;2022-10-16T05:49:29;98774.56;;;10.68;72.74
65756;BME280;52489;47.502;18.940;2022-10-16T05:50:34;98772.69;;;10.74;72.67
65756;BME280;52489;47.502;18.940;2022-10-16T05:51:36;98776.13;;;10.69;73.03
65756;BME280;52489;47.502;18.940;2022-10-16T05:52:39;98771.97;;;10.63;73.77